sensor_id;sensor_type;location;lat;lon;timestamp;P1;durP1;ratioP1;P2;durP2;ratioP2
41946;SDS011;27638;42.184;24.848;2023-01-28T00:01:36;4.93;;;3.42;;
41946;SDS011;27638;42.184;24.848;2023-01-28T00:04:01;4.03;;;3.22;;
41946;SDS011;27638;42.184;24.848;2023-01-28T00:06:27;6.40;;;3.38;;
41946;SDS011;27638;42.184;24.848;2023-01-28T00:08:52;6.15;;;3.63;;
41946;SDS011;27638;42.184;24.848;2023-01-28T00:11:19;4.75;;;3.42;;
41946;SDS011;27638;42.184;24.848;2023-01-28T00:13:52;4.18;;;3.00;;
41946;SDS011;27638;42.184;24.848;2023-01-28T00:16:18;4.00;;;2.70;;
41946;SDS011;27638;42.184;24.848;2023-01-28T00:18:44;3.75;;;2.70;;
41946;SDS011;27638;42.184;24.848;2023-01-28T00:21:10;3.92;;;2.80;;
41946;SDS011;27638;42.184;24.848;2023-01-28T00:23:37;3.10;;;2.50;;
41946;SDS011;27638;42.184;24.848;2023-01-28T00:26:05;4.30;;;2.67;;
41946;SDS011;27638;42.184;24.848;2023-01-28T00:28:32;4.13;;;3.13;;
41946;SDS011;27638;42.184;24.848;2023-01-28T00:30:58;4.18;;;3.10;;
41946;SDS011;27638;42.184;24.848;2023-01-28T00:33:30;4.47;;;2.88;;
41946;SDS011;27638;42.184;24.848;2023-01-28T00:35:59;3.35;;;2.60;;
41946;SDS011;27638;42.184;24.848;2023-01-28T00:38:26;3.08;;;2.20;;
41946;SDS011;27638;42.184;24.848;2023-01-28T00:40:52;4.05;;;2.55;;
41946;SDS011;27638;42.184;24.848;2023-01-28T00:43:17;3.63;;;2.50;;
41946;SDS011;27638;42.184;24.848;2023-01-28T00:45:43;4.65;;;2.70;;
41946;SDS011;27638;42.184;24.848;2023-01-28T00:48:09;4.25;;;2.50;;
41946;SDS011;27638;42.184;24.848;2023-01-28T00:50:34;3.33;;;2.40;;
41946;SDS011;27638;42.184;24.848;2023-01-28T00:52:59;4.35;;;2.90;;
41946;SDS011;27638;42.184;24.848;2023-01-28T00:55:25;4.43;;;2.95;;
41946;SDS011;27638;42.184;24.848;2023-01-28T00:57:52;3.30;;;3.00;;
41946;SDS011;27638;42.184;24.848;2023-01-28T01:00:17;4.22;;;2.75;;
41946;SDS011;27638;42.184;24.848;2023-01-28T01:02:45;3.97;;;3.08;;
41946;SDS011;27638;42.184;24.848;2023-01-28T01:05:11;4.65;;;3.05;;
41946;SDS011;27638;42.184;24.848;2023-01-28T01:07:37;5.43;;;2.88;;
41946;SDS011;27638;42.184;24.848;2023-01-28T01:10:06;4.10;;;3.00;;
41946;SDS011;27638;42.184;24.848;2023-01-28T01:12:33;4.32;;;2.75;;
41946;SDS011;27638;42.184;24.848;2023-01-28T01:14:59;4.13;;;2.90;;
41946;SDS011;27638;42.184;24.848;2023-01-28T01:17:24;5.18;;;3.30;;
41946;SDS011;27638;42.184;24.848;2023-01-28T01:19:50;4.65;;;3.17;;
41946;SDS011;27638;42.184;24.848;2023-01-28T01:22:15;4.75;;;3.47;;
41946;SDS011;27638;42.184;24.848;2023-01-28T01:24:41;6.38;;;3.42;;
41946;SDS011;27638;42.184;24.848;2023-01-28T01:27:06;5.10;;;3.28;;
41946;SDS011;27638;42.184;24.848;2023-01-28T01:29:32;4.60;;;3.10;;
41946;SDS011;27638;42.184;24.848;2023-01-28T01:31:58;5.82;;;3.50;;
41946;SDS011;27638;42.184;24.848;2023-01-28T01:34:24;5.72;;;3.60;;
41946;SDS011;27638;42.184;24.848;2023-01-28T01:36:50;4.70;;;3.10;;
41946;SDS011;27638;42.184;24.848;2023-01-28T01:39:15;4.18;;;3.30;;
41946;SDS011;27638;42.184;24.848;2023-01-28T01:41:41;3.95;;;2.88;;
41946;SDS011;27638;42.184;24.848;2023-01-28T01:44:46;5.13;;;3.55;;
41946;SDS011;27638;42.184;24.848;2023-01-28T01:47:10;4.43;;;3.20;;
41946;SDS011;27638;42.184;24.848;2023-01-28T01:49:37;3.58;;;2.67;;
41946;SDS011;27638;42.184;24.848;2023-01-28T01:52:05;5.07;;;3.38;;
41946;SDS011;27638;42.184;24.848;2023-01-28T01:54:37;3.83;;;3.13;;
41946;SDS011;27638;42.184;24.848;2023-01-28T01:57:07;5.28;;;2.88;;
41946;SDS011;27638;42.184;24.848;2023-01-28T01:59:37;4.03;;;3.30;;
41946;SDS011;27638;42.184;24.848;2023-01-28T02:02:06;4.95;;;3.45;;
41946;SDS011;27638;42.184;24.848;2023-01-28T02:04:40;5.00;;;3.05;;
41946;SDS011;27638;42.184;24.848;2023-01-28T02:07:08;4.88;;;3.22;;
41946;SDS011;27638;42.184;24.848;2023-01-28T02:09:39;4.85;;;3.33;;
41946;SDS011;27638;42.184;24.848;2023-01-28T02:12:13;4.63;;;3.05;;
41946;SDS011;27638;42.184;24.848;2023-01-28T02:14:44;5.05;;;3.35;;
41946;SDS011;27638;42.184;24.848;2023-01-28T02:17:23;3.67;;;3.13;;
41946;SDS011;27638;42.184;24.848;2023-01-28T02:19:57;5.10;;;3.45;;
41946;SDS011;27638;42.184;24.848;2023-01-28T02:31:22;4.75;;;3.30;;
41946;SDS011;27638;42.184;24.848;2023-01-28T02:38:58;3.70;;;2.72;;
41946;SDS011;27638;42.184;24.848;2023-01-28T02:41:33;4.65;;;3.17;;
41946;SDS011;27638;42.184;24.848;2023-01-28T02:44:04;4.13;;;2.88;;
41946;SDS011;27638;42.184;24.848;2023-01-28T02:49:24;6.93;;;3.05;;
41946;SDS011;27638;42.184;24.848;2023-01-28T03:06:20;5.30;;;2.63;;
41946;SDS011;27638;42.184;24.848;2023-01-28T03:11:43;2.97;;;2.17;;
41946;SDS011;27638;42.184;24.848;2023-01-28T03:14:31;4.13;;;2.42;;
41946;SDS011;27638;42.184;24.848;2023-01-28T03:17:23;3.65;;;2.03;;
41946;SDS011;27638;42.184;24.848;2023-01-28T03:24:04;3.80;;;2.88;;
41946;SDS011;27638;42.184;24.848;2023-01-28T03:27:06;3.88;;;2.28;;
41946;SDS011;27638;42.184;24.848;2023-01-28T03:29:58;4.15;;;2.40;;
41946;SDS011;27638;42.184;24.848;2023-01-28T03:32:46;3.13;;;2.30;;
41946;SDS011;27638;42.184;24.848;2023-01-28T03:35:32;3.78;;;2.45;;
41946;SDS011;27638;42.184;24.848;2023-01-28T03:38:18;3.60;;;2.50;;
41946;SDS011;27638;42.184;24.848;2023-01-28T03:41:05;5.93;;;2.95;;
41946;SDS011;27638;42.184;24.848;2023-01-28T03:43:30;3.35;;;2.80;;
41946;SDS011;27638;42.184;24.848;2023-01-28T03:45:56;4.05;;;2.47;;
41946;SDS011;27638;42.184;24.848;2023-01-28T03:48:23;3.85;;;2.45;;
41946;SDS011;27638;42.184;24.848;2023-01-28T03:50:50;5.05;;;2.67;;
41946;SDS011;27638;42.184;24.848;2023-01-28T03:53:16;2.78;;;2.17;;
41946;SDS011;27638;42.184;24.848;2023-01-28T03:55:44;2.97;;;2.50;;
41946;SDS011;27638;42.184;24.848;2023-01-28T03:58:11;3.80;;;2.90;;
41946;SDS011;27638;42.184;24.848;2023-01-28T04:00:37;3.60;;;2.72;;
41946;SDS011;27638;42.184;24.848;2023-01-28T04:03:06;4.25;;;2.70;;
41946;SDS011;27638;42.184;24.848;2023-01-28T04:05:41;2.78;;;2.30;;
41946;SDS011;27638;42.184;24.848;2023-01-28T04:08:10;4.50;;;2.55;;
41946;SDS011;27638;42.184;24.848;2023-01-28T04:10:37;4.40;;;3.13;;
41946;SDS011;27638;42.184;24.848;2023-01-28T04:13:03;6.10;;;2.65;;
41946;SDS011;27638;42.184;24.848;2023-01-28T04:15:29;4.38;;;2.45;;
41946;SDS011;27638;42.184;24.848;2023-01-28T04:17:55;2.20;;;2.00;;
41946;SDS011;27638;42.184;24.848;2023-01-28T04:20:21;2.60;;;2.38;;
41946;SDS011;27638;42.184;24.848;2023-01-28T04:22:46;2.85;;;2.00;;
41946;SDS011;27638;42.184;24.848;2023-01-28T04:25:12;4.45;;;2.60;;
41946;SDS011;27638;42.184;24.848;2023-01-28T04:27:37;3.70;;;2.50;;
41946;SDS011;27638;42.184;24.848;2023-01-28T04:30:03;3.30;;;2.50;;
41946;SDS011;27638;42.184;24.848;2023-01-28T04:32:29;4.10;;;2.35;;
41946;SDS011;27638;42.184;24.848;2023-01-28T04:34:54;3.33;;;2.22;;
41946;SDS011;27638;42.184;24.848;2023-01-28T04:37:20;4.45;;;2.58;;
41946;SDS011;27638;42.184;24.848;2023-01-28T04:39:45;3.45;;;2.47;;
41946;SDS011;27638;42.184;24.848;2023-01-28T04:42:10;5.28;;;2.83;;
41946;SDS011;27638;42.184;24.848;2023-01-28T04:44:36;5.03;;;3.35;;
41946;SDS011;27638;42.184;24.848;2023-01-28T04:47:01;5.75;;;3.53;;
41946;SDS011;27638;42.184;24.848;2023-01-28T04:49:27;4.75;;;3.22;;
41946;SDS011;27638;42.184;24.848;2023-01-28T04:51:52;4.78;;;3.38;;
41946;SDS011;27638;42.184;24.848;2023-01-28T04:54:18;4.57;;;3.20;;
41946;SDS011;27638;42.184;24.848;2023-01-28T04:56:43;6.07;;;3.85;;
41946;SDS011;27638;42.184;24.848;2023-01-28T04:59:09;5.68;;;3.83;;
41946;SDS011;27638;42.184;24.848;2023-01-28T05:01:34;5.07;;;3.00;;
41946;SDS011;27638;42.184;24.848;2023-01-28T05:04:00;4.20;;;2.33;;
41946;SDS011;27638;42.184;24.848;2023-01-28T05:06:29;4.32;;;2.85;;
41946;SDS011;27638;42.184;24.848;2023-01-28T05:08:58;3.10;;;2.45;;
41946;SDS011;27638;42.184;24.848;2023-01-28T05:11:24;4.88;;;2.63;;
41946;SDS011;27638;42.184;24.848;2023-01-28T05:13:50;2.58;;;2.38;;
41946;SDS011;27638;42.184;24.848;2023-01-28T05:16:15;4.57;;;2.65;;
41946;SDS011;27638;42.184;24.848;2023-01-28T05:18:41;3.72;;;2.63;;
41946;SDS011;27638;42.184;24.848;2023-01-28T05:21:07;5.03;;;2.92;;
41946;SDS011;27638;42.184;24.848;2023-01-28T05:23:32;6.60;;;3.60;;
41946;SDS011;27638;42.184;24.848;2023-01-28T05:25:58;5.55;;;3.67;;
41946;SDS011;27638;42.184;24.848;2023-01-28T05:28:23;4.80;;;3.05;;
41946;SDS011;27638;42.184;24.848;2023-01-28T05:30:49;6.65;;;3.83;;
41946;SDS011;27638;42.184;24.848;2023-01-28T05:33:14;5.60;;;2.95;;
41946;SDS011;27638;42.184;24.848;2023-01-28T05:35:41;6.40;;;3.22;;
41946;SDS011;27638;42.184;24.848;2023-01-28T05:38:06;9.15;;;4.85;;
41946;SDS011;27638;42.184;24.848;2023-01-28T05:40:32;9.90;;;5.82;;
41946;SDS011;27638;42.184;24.848;2023-01-28T05:42:58;11.27;;;5.60;;
41946;SDS011;27638;42.184;24.848;2023-01-28T05:45:23;6.03;;;4.10;;
41946;SDS011;27638;42.184;24.848;2023-01-28T05:47:49;7.15;;;4.30;;
41946;SDS011;27638;42.184;24.848;2023-01-28T05:50:14;7.75;;;3.70;;
41946;SDS011;27638;42.184;24.848;2023-01-28T05:52:40;6.47;;;4.20;;
41946;SDS011;27638;42.184;24.848;2023-01-28T05:55:06;5.22;;;3.50;;
41946;SDS011;27638;42.184;24.848;2023-01-28T05:57:32;9.48;;;5.07;;
41946;SDS011;27638;42.184;24.848;2023-01-28T05:59:57;6.53;;;3.83;;
41946;SDS011;27638;42.184;24.848;2023-01-28T06:02:23;5.43;;;3.30;;
41946;SDS011;27638;42.184;24.848;2023-01-28T06:04:48;6.65;;;3.70;;
41946;SDS011;27638;42.184;24.848;2023-01-28T06:07:13;6.38;;;3.63;;
41946;SDS011;27638;42.184;24.848;2023-01-28T06:09:43;6.10;;;3.92;;
41946;SDS011;27638;42.184;24.848;2023-01-28T06:12:09;4.10;;;3.08;;
41946;SDS011;27638;42.184;24.848;2023-01-28T06:14:34;8.52;;;4.55;;
41946;SDS011;27638;42.184;24.848;2023-01-28T06:17:00;9.10;;;5.22;;
41946;SDS011;27638;42.184;24.848;2023-01-28T06:19:25;10.82;;;5.95;;
41946;SDS011;27638;42.184;24.848;2023-01-28T06:21:51;9.65;;;5.90;;
41946;SDS011;27638;42.184;24.848;2023-01-28T06:24:16;9.02;;;4.80;;
41946;SDS011;27638;42.184;24.848;2023-01-28T06:26:42;8.15;;;4.68;;
41946;SDS011;27638;42.184;24.848;2023-01-28T06:29:07;7.38;;;4.15;;
41946;SDS011;27638;42.184;24.848;2023-01-28T06:31:33;6.05;;;4.28;;
41946;SDS011;27638;42.184;24.848;2023-01-28T06:33:58;8.10;;;4.65;;
41946;SDS011;27638;42.184;24.848;2023-01-28T06:36:24;8.43;;;5.07;;
41946;SDS011;27638;42.184;24.848;2023-01-28T06:38:49;7.50;;;4.90;;
41946;SDS011;27638;42.184;24.848;2023-01-28T06:41:15;9.00;;;5.30;;
41946;SDS011;27638;42.184;24.848;2023-01-28T06:43:40;6.80;;;4.63;;
41946;SDS011;27638;42.184;24.848;2023-01-28T06:46:06;6.85;;;4.30;;
41946;SDS011;27638;42.184;24.848;2023-01-28T06:48:31;7.78;;;4.10;;
41946;SDS011;27638;42.184;24.848;2023-01-28T06:50:57;10.50;;;5.65;;
41946;SDS011;27638;42.184;24.848;2023-01-28T06:53:22;7.43;;;4.80;;
41946;SDS011;27638;42.184;24.848;2023-01-28T06:55:48;6.00;;;4.25;;
41946;SDS011;27638;42.184;24.848;2023-01-28T06:58:13;6.95;;;4.13;;
41946;SDS011;27638;42.184;24.848;2023-01-28T07:00:39;6.55;;;4.43;;
41946;SDS011;27638;42.184;24.848;2023-01-28T07:03:05;5.32;;;4.10;;
41946;SDS011;27638;42.184;24.848;2023-01-28T07:05:30;6.07;;;3.85;;
41946;SDS011;27638;42.184;24.848;2023-01-28T07:07:56;7.65;;;4.55;;
41946;SDS011;27638;42.184;24.848;2023-01-28T07:10:21;7.00;;;5.60;;
41946;SDS011;27638;42.184;24.848;2023-01-28T07:12:47;8.27;;;5.63;;
41946;SDS011;27638;42.184;24.848;2023-01-28T07:15:12;6.95;;;4.78;;
41946;SDS011;27638;42.184;24.848;2023-01-28T07:17:42;5.60;;;3.92;;
41946;SDS011;27638;42.184;24.848;2023-01-28T07:20:09;5.80;;;4.13;;
41946;SDS011;27638;42.184;24.848;2023-01-28T07:22:37;6.18;;;4.25;;
41946;SDS011;27638;42.184;24.848;2023-01-28T07:25:05;5.05;;;4.10;;
41946;SDS011;27638;42.184;24.848;2023-01-28T07:27:31;8.15;;;5.85;;
41946;SDS011;27638;42.184;24.848;2023-01-28T07:29:57;6.43;;;3.97;;
41946;SDS011;27638;42.184;24.848;2023-01-28T07:32:23;4.40;;;3.38;;
41946;SDS011;27638;42.184;24.848;2023-01-28T07:34:50;5.18;;;3.28;;
41946;SDS011;27638;42.184;24.848;2023-01-28T07:37:16;5.00;;;3.70;;
41946;SDS011;27638;42.184;24.848;2023-01-28T07:39:41;5.18;;;3.65;;
41946;SDS011;27638;42.184;24.848;2023-01-28T07:42:07;5.15;;;4.18;;
41946;SDS011;27638;42.184;24.848;2023-01-28T07:44:33;5.03;;;4.00;;
41946;SDS011;27638;42.184;24.848;2023-01-28T07:47:01;5.38;;;3.35;;
41946;SDS011;27638;42.184;24.848;2023-01-28T07:49:27;5.00;;;4.07;;
41946;SDS011;27638;42.184;24.848;2023-01-28T07:51:52;4.13;;;2.80;;
41946;SDS011;27638;42.184;24.848;2023-01-28T07:54:18;6.82;;;3.72;;
41946;SDS011;27638;42.184;24.848;2023-01-28T07:56:43;3.85;;;2.75;;
41946;SDS011;27638;42.184;24.848;2023-01-28T07:59:09;4.28;;;3.10;;
41946;SDS011;27638;42.184;24.848;2023-01-28T08:01:34;4.32;;;2.78;;
41946;SDS011;27638;42.184;24.848;2023-01-28T08:04:00;3.20;;;3.00;;
41946;SDS011;27638;42.184;24.848;2023-01-28T08:06:27;3.92;;;3.20;;
41946;SDS011;27638;42.184;24.848;2023-01-28T08:08:53;3.40;;;2.53;;
41946;SDS011;27638;42.184;24.848;2023-01-28T08:11:19;5.35;;;3.00;;
41946;SDS011;27638;42.184;24.848;2023-01-28T08:13:45;2.83;;;2.28;;
41946;SDS011;27638;42.184;24.848;2023-01-28T08:16:10;2.72;;;2.38;;
41946;SDS011;27638;42.184;24.848;2023-01-28T08:18:36;2.72;;;2.28;;
41946;SDS011;27638;42.184;24.848;2023-01-28T08:21:02;6.47;;;4.75;;
41946;SDS011;27638;42.184;24.848;2023-01-28T08:23:29;4.10;;;2.60;;
41946;SDS011;27638;42.184;24.848;2023-01-28T08:25:57;4.53;;;3.00;;
41946;SDS011;27638;42.184;24.848;2023-01-28T08:28:23;4.03;;;2.88;;
41946;SDS011;27638;42.184;24.848;2023-01-28T08:30:49;3.30;;;2.25;;
41946;SDS011;27638;42.184;24.848;2023-01-28T08:33:15;2.88;;;2.10;;
41946;SDS011;27638;42.184;24.848;2023-01-28T08:35:41;4.25;;;2.42;;
41946;SDS011;27638;42.184;24.848;2023-01-28T08:38:09;3.88;;;2.15;;
41946;SDS011;27638;42.184;24.848;2023-01-28T08:40:35;3.47;;;2.85;;
41946;SDS011;27638;42.184;24.848;2023-01-28T08:43:01;3.45;;;2.33;;
41946;SDS011;27638;42.184;24.848;2023-01-28T08:45:27;3.67;;;2.78;;
41946;SDS011;27638;42.184;24.848;2023-01-28T08:47:54;4.32;;;3.53;;
41946;SDS011;27638;42.184;24.848;2023-01-28T08:50:22;4.13;;;3.00;;
41946;SDS011;27638;42.184;24.848;2023-01-28T08:52:54;2.80;;;2.17;;
41946;SDS011;27638;42.184;24.848;2023-01-28T08:55:20;2.90;;;2.22;;
41946;SDS011;27638;42.184;24.848;2023-01-28T08:57:46;3.78;;;2.75;;
41946;SDS011;27638;42.184;24.848;2023-01-28T09:00:12;4.35;;;2.70;;
41946;SDS011;27638;42.184;24.848;2023-01-28T09:02:38;2.78;;;2.50;;
41946;SDS011;27638;42.184;24.848;2023-01-28T09:05:04;2.65;;;2.25;;
41946;SDS011;27638;42.184;24.848;2023-01-28T09:07:30;2.53;;;2.30;;
41946;SDS011;27638;42.184;24.848;2023-01-28T09:09:56;3.78;;;2.55;;
41946;SDS011;27638;42.184;24.848;2023-01-28T09:12:22;3.33;;;2.20;;
41946;SDS011;27638;42.184;24.848;2023-01-28T09:14:48;6.28;;;3.60;;
41946;SDS011;27638;42.184;24.848;2023-01-28T09:17:13;6.85;;;4.50;;
41946;SDS011;27638;42.184;24.848;2023-01-28T09:19:38;6.75;;;3.05;;
41946;SDS011;27638;42.184;24.848;2023-01-28T09:22:04;5.22;;;4.35;;
41946;SDS011;27638;42.184;24.848;2023-01-28T09:24:30;3.38;;;2.97;;
41946;SDS011;27638;42.184;24.848;2023-01-28T09:26:55;2.90;;;2.60;;
41946;SDS011;27638;42.184;24.848;2023-01-28T09:29:21;3.53;;;2.88;;
41946;SDS011;27638;42.184;24.848;2023-01-28T09:31:46;3.42;;;2.47;;
41946;SDS011;27638;42.184;24.848;2023-01-28T09:34:11;4.57;;;2.53;;
41946;SDS011;27638;42.184;24.848;2023-01-28T09:36:38;3.70;;;2.97;;
41946;SDS011;27638;42.184;24.848;2023-01-28T09:39:04;5.38;;;3.00;;
41946;SDS011;27638;42.184;24.848;2023-01-28T09:46:47;4.55;;;3.78;;
41946;SDS011;27638;42.184;24.848;2023-01-28T09:49:35;5.07;;;3.45;;
41946;SDS011;27638;42.184;24.848;2023-01-28T09:52:01;3.38;;;3.00;;
41946;SDS011;27638;42.184;24.848;2023-01-28T09:57:19;4.63;;;3.53;;
41946;SDS011;27638;42.184;24.848;2023-01-28T09:59:47;3.47;;;3.13;;
41946;SDS011;27638;42.184;24.848;2023-01-28T10:02:48;4.50;;;3.00;;
41946;SDS011;27638;42.184;24.848;2023-01-28T10:08:15;2.03;;;1.70;;
41946;SDS011;27638;42.184;24.848;2023-01-28T10:16:02;3.25;;;2.30;;
41946;SDS011;27638;42.184;24.848;2023-01-28T10:18:46;6.00;;;2.97;;
41946;SDS011;27638;42.184;24.848;2023-01-28T10:21:20;1.70;;;1.60;;
41946;SDS011;27638;42.184;24.848;2023-01-28T10:26:46;3.45;;;1.85;;
41946;SDS011;27638;42.184;24.848;2023-01-28T10:29:18;2.83;;;2.13;;
41946;SDS011;27638;42.184;24.848;2023-01-28T10:34:52;4.30;;;2.27;;
41946;SDS011;27638;42.184;24.848;2023-01-28T10:37:17;4.50;;;2.17;;
41946;SDS011;27638;42.184;24.848;2023-01-28T10:39:44;2.40;;;2.15;;
41946;SDS011;27638;42.184;24.848;2023-01-28T10:42:25;4.22;;;2.15;;
41946;SDS011;27638;42.184;24.848;2023-01-28T10:44:54;2.92;;;1.98;;
41946;SDS011;27638;42.184;24.848;2023-01-28T10:47:31;2.75;;;2.28;;
41946;SDS011;27638;42.184;24.848;2023-01-28T10:50:02;2.55;;;1.92;;
41946;SDS011;27638;42.184;24.848;2023-01-28T10:52:30;2.33;;;2.10;;
41946;SDS011;27638;42.184;24.848;2023-01-28T10:55:02;3.47;;;2.40;;
41946;SDS011;27638;42.184;24.848;2023-01-28T10:57:31;4.53;;;2.60;;
41946;SDS011;27638;42.184;24.848;2023-01-28T11:00:08;4.40;;;2.92;;
41946;SDS011;27638;42.184;24.848;2023-01-28T11:02:46;5.05;;;3.33;;
41946;SDS011;27638;42.184;24.848;2023-01-28T11:05:20;3.17;;;2.30;;
41946;SDS011;27638;42.184;24.848;2023-01-28T11:08:14;2.83;;;2.30;;
41946;SDS011;27638;42.184;24.848;2023-01-28T11:10:41;2.90;;;2.30;;
41946;SDS011;27638;42.184;24.848;2023-01-28T11:15:47;3.00;;;2.70;;
41946;SDS011;27638;42.184;24.848;2023-01-28T11:18:40;2.63;;;2.28;;
41946;SDS011;27638;42.184;24.848;2023-01-28T11:21:15;4.40;;;2.58;;
41946;SDS011;27638;42.184;24.848;2023-01-28T11:23:50;3.90;;;2.75;;
41946;SDS011;27638;42.184;24.848;2023-01-28T11:26:22;3.97;;;2.88;;
41946;SDS011;27638;42.184;24.848;2023-01-28T11:28:50;3.25;;;2.58;;
41946;SDS011;27638;42.184;24.848;2023-01-28T11:31:17;4.35;;;2.85;;
41946;SDS011;27638;42.184;24.848;2023-01-28T11:33:58;3.00;;;2.28;;
41946;SDS011;27638;42.184;24.848;2023-01-28T11:36:26;3.75;;;2.70;;
41946;SDS011;27638;42.184;24.848;2023-01-28T11:38:57;4.65;;;2.53;;
41946;SDS011;27638;42.184;24.848;2023-01-28T11:41:42;2.55;;;1.98;;
41946;SDS011;27638;42.184;24.848;2023-01-28T11:44:13;2.78;;;2.30;;
41946;SDS011;27638;42.184;24.848;2023-01-28T12:11:53;4.60;;;3.00;;
41946;SDS011;27638;42.184;24.848;2023-01-28T12:26:25;3.53;;;2.90;;
41946;SDS011;27638;42.184;24.848;2023-01-28T12:36:54;5.97;;;4.07;;
41946;SDS011;27638;42.184;24.848;2023-01-28T12:42:29;3.83;;;3.53;;
41946;SDS011;27638;42.184;24.848;2023-01-28T12:44:59;5.07;;;3.53;;
41946;SDS011;27638;42.184;24.848;2023-01-28T12:47:36;5.40;;;3.53;;
41946;SDS011;27638;42.184;24.848;2023-01-28T12:50:20;8.50;;;4.80;;
41946;SDS011;27638;42.184;24.848;2023-01-28T12:52:51;6.72;;;4.78;;
41946;SDS011;27638;42.184;24.848;2023-01-28T12:57:56;10.70;;;5.78;;
41946;SDS011;27638;42.184;24.848;2023-01-28T13:03:04;4.50;;;3.88;;
41946;SDS011;27638;42.184;24.848;2023-01-28T13:05:51;3.58;;;3.28;;
41946;SDS011;27638;42.184;24.848;2023-01-28T13:08:25;6.97;;;4.30;;
41946;SDS011;27638;42.184;24.848;2023-01-28T13:10:52;5.97;;;4.43;;
41946;SDS011;27638;42.184;24.848;2023-01-28T13:13:39;7.00;;;4.38;;
41946;SDS011;27638;42.184;24.848;2023-01-28T13:16:07;5.35;;;4.85;;
41946;SDS011;27638;42.184;24.848;2023-01-28T13:21:41;7.28;;;5.35;;
41946;SDS011;27638;42.184;24.848;2023-01-28T13:26:27;7.75;;;5.60;;
41946;SDS011;27638;42.184;24.848;2023-01-28T13:28:53;6.28;;;4.15;;
41946;SDS011;27638;42.184;24.848;2023-01-28T13:31:36;6.85;;;4.50;;
41946;SDS011;27638;42.184;24.848;2023-01-28T13:34:04;5.95;;;4.70;;
41946;SDS011;27638;42.184;24.848;2023-01-28T13:36:38;8.18;;;5.43;;
41946;SDS011;27638;42.184;24.848;2023-01-28T13:41:45;6.80;;;4.45;;
41946;SDS011;27638;42.184;24.848;2023-01-28T13:49:15;6.38;;;4.38;;
41946;SDS011;27638;42.184;24.848;2023-01-28T13:51:54;7.72;;;5.15;;
41946;SDS011;27638;42.184;24.848;2023-01-28T13:54:24;7.15;;;4.97;;
41946;SDS011;27638;42.184;24.848;2023-01-28T14:04:48;6.63;;;4.90;;
41946;SDS011;27638;42.184;24.848;2023-01-28T14:07:44;7.68;;;4.80;;
41946;SDS011;27638;42.184;24.848;2023-01-28T14:10:28;9.60;;;5.68;;
41946;SDS011;27638;42.184;24.848;2023-01-28T14:15:54;6.78;;;4.35;;
41946;SDS011;27638;42.184;24.848;2023-01-28T14:18:33;7.60;;;5.15;;
41946;SDS011;27638;42.184;24.848;2023-01-28T14:21:07;10.02;;;6.50;;
41946;SDS011;27638;42.184;24.848;2023-01-28T14:23:36;8.60;;;5.93;;
41946;SDS011;27638;42.184;24.848;2023-01-28T14:28:34;11.48;;;6.07;;
41946;SDS011;27638;42.184;24.848;2023-01-28T14:31:20;10.10;;;6.65;;
41946;SDS011;27638;42.184;24.848;2023-01-28T14:33:48;10.60;;;6.72;;
41946;SDS011;27638;42.184;24.848;2023-01-28T14:36:14;13.52;;;8.35;;
41946;SDS011;27638;42.184;24.848;2023-01-28T14:38:41;13.75;;;9.07;;
41946;SDS011;27638;42.184;24.848;2023-01-28T14:41:08;10.85;;;6.90;;
41946;SDS011;27638;42.184;24.848;2023-01-28T14:43:49;9.05;;;6.05;;
41946;SDS011;27638;42.184;24.848;2023-01-28T14:49:04;10.18;;;7.03;;
41946;SDS011;27638;42.184;24.848;2023-01-28T14:54:09;15.82;;;8.43;;
41946;SDS011;27638;42.184;24.848;2023-01-28T15:01:57;13.18;;;8.25;;
41946;SDS011;27638;42.184;24.848;2023-01-28T15:04:24;14.00;;;9.13;;
41946;SDS011;27638;42.184;24.848;2023-01-28T15:06:51;17.58;;;9.18;;
41946;SDS011;27638;42.184;24.848;2023-01-28T15:09:17;12.27;;;8.52;;
41946;SDS011;27638;42.184;24.848;2023-01-28T15:11:43;16.77;;;9.68;;
41946;SDS011;27638;42.184;24.848;2023-01-28T15:14:14;14.27;;;9.82;;
41946;SDS011;27638;42.184;24.848;2023-01-28T15:16:46;12.52;;;7.93;;
41946;SDS011;27638;42.184;24.848;2023-01-28T15:19:13;12.52;;;8.00;;
41946;SDS011;27638;42.184;24.848;2023-01-28T15:21:39;14.88;;;10.70;;
41946;SDS011;27638;42.184;24.848;2023-01-28T15:24:09;26.60;;;16.98;;
41946;SDS011;27638;42.184;24.848;2023-01-28T15:26:38;24.98;;;15.05;;
41946;SDS011;27638;42.184;24.848;2023-01-28T15:29:03;18.98;;;13.07;;
41946;SDS011;27638;42.184;24.848;2023-01-28T15:31:30;18.65;;;11.63;;
41946;SDS011;27638;42.184;24.848;2023-01-28T15:34:17;17.55;;;11.43;;
41946;SDS011;27638;42.184;24.848;2023-01-28T15:36:44;12.57;;;8.93;;
41946;SDS011;27638;42.184;24.848;2023-01-28T15:39:15;12.77;;;7.70;;
41946;SDS011;27638;42.184;24.848;2023-01-28T15:42:04;10.25;;;7.05;;
41946;SDS011;27638;42.184;24.848;2023-01-28T15:45:03;13.38;;;7.10;;
41946;SDS011;27638;42.184;24.848;2023-01-28T15:47:24;8.45;;;6.97;;
41946;SDS011;27638;42.184;24.848;2023-01-28T15:49:53;10.20;;;6.60;;
41946;SDS011;27638;42.184;24.848;2023-01-28T15:52:29;10.60;;;6.35;;
41946;SDS011;27638;42.184;24.848;2023-01-28T15:54:59;9.52;;;6.57;;
41946;SDS011;27638;42.184;24.848;2023-01-28T15:57:26;10.35;;;7.32;;
41946;SDS011;27638;42.184;24.848;2023-01-28T16:00:10;10.02;;;6.85;;
41946;SDS011;27638;42.184;24.848;2023-01-28T16:02:42;13.73;;;8.35;;
41946;SDS011;27638;42.184;24.848;2023-01-28T16:08:27;15.63;;;9.27;;
41946;SDS011;27638;42.184;24.848;2023-01-28T16:11:01;35.60;;;21.75;;
41946;SDS011;27638;42.184;24.848;2023-01-28T16:13:27;46.08;;;25.42;;
41946;SDS011;27638;42.184;24.848;2023-01-28T16:15:56;23.15;;;14.25;;
41946;SDS011;27638;42.184;24.848;2023-01-28T16:21:03;23.42;;;12.65;;
41946;SDS011;27638;42.184;24.848;2023-01-28T16:23:31;14.75;;;10.48;;
41946;SDS011;27638;42.184;24.848;2023-01-28T16:26:01;18.92;;;11.13;;
41946;SDS011;27638;42.184;24.848;2023-01-28T16:28:28;17.83;;;9.63;;
41946;SDS011;27638;42.184;24.848;2023-01-28T16:30:55;16.52;;;10.02;;
41946;SDS011;27638;42.184;24.848;2023-01-28T16:33:22;19.50;;;12.35;;
41946;SDS011;27638;42.184;24.848;2023-01-28T16:35:48;31.25;;;17.15;;
41946;SDS011;27638;42.184;24.848;2023-01-28T16:38:14;28.20;;;17.42;;
41946;SDS011;27638;42.184;24.848;2023-01-28T16:40:42;31.23;;;18.20;;
41946;SDS011;27638;42.184;24.848;2023-01-28T16:43:09;27.08;;;15.98;;
41946;SDS011;27638;42.184;24.848;2023-01-28T16:45:38;20.35;;;14.23;;
41946;SDS011;27638;42.184;24.848;2023-01-28T16:48:05;19.98;;;13.30;;
41946;SDS011;27638;42.184;24.848;2023-01-28T16:50:31;18.95;;;13.15;;
41946;SDS011;27638;42.184;24.848;2023-01-28T16:52:57;20.48;;;13.82;;
41946;SDS011;27638;42.184;24.848;2023-01-28T16:55:23;19.60;;;13.45;;
41946;SDS011;27638;42.184;24.848;2023-01-28T16:57:50;15.27;;;10.23;;
41946;SDS011;27638;42.184;24.848;2023-01-28T17:00:19;19.25;;;12.63;;
41946;SDS011;27638;42.184;24.848;2023-01-28T17:02:49;15.77;;;10.43;;
41946;SDS011;27638;42.184;24.848;2023-01-28T17:05:15;13.63;;;8.88;;
41946;SDS011;27638;42.184;24.848;2023-01-28T17:07:41;14.45;;;9.45;;
41946;SDS011;27638;42.184;24.848;2023-01-28T17:10:07;13.88;;;8.65;;
41946;SDS011;27638;42.184;24.848;2023-01-28T17:12:33;16.95;;;10.93;;
41946;SDS011;27638;42.184;24.848;2023-01-28T17:14:59;16.02;;;9.27;;
41946;SDS011;27638;42.184;24.848;2023-01-28T17:17:24;16.33;;;9.55;;
41946;SDS011;27638;42.184;24.848;2023-01-28T17:19:50;17.13;;;10.02;;
41946;SDS011;27638;42.184;24.848;2023-01-28T17:22:15;17.02;;;10.65;;